createdAt,value
2022-08-18T00:01:58.746Z,32.80
2022-08-18T00:04:35.721Z,32.25
2022-08-18T00:07:05.967Z,33.88
2022-08-18T00:09:35.893Z,34.55
2022-08-18T00:12:06.566Z,38.22
2022-08-18T00:14:33.911Z,36.47
2022-08-18T00:17:01.281Z,32.30
2022-08-18T00:19:45.962Z,33.00
2022-08-18T00:22:19.011Z,32.88
2022-08-18T00:24:49.992Z,34.80
2022-08-18T00:27:21.821Z,30.98
2022-08-18T00:29:50.242Z,29.90
2022-08-18T00:32:20.917Z,31.63
2022-08-18T00:34:48.251Z,30.35
2022-08-18T00:37:15.301Z,29.70
2022-08-18T00:39:46.596Z,29.05
2022-08-18T00:42:27.664Z,34.03
2022-08-18T00:44:59.228Z,32.78
2022-08-18T00:47:42.583Z,33.53
2022-08-18T00:50:37.048Z,33.67
2022-08-18T00:53:14.730Z,41.35
2022-08-18T00:55:53.650Z,42.72
2022-08-18T00:58:47.314Z,35.72
2022-08-18T01:01:15.991Z,37.17
2022-08-18T01:03:44.277Z,41.67
2022-08-18T01:06:32.403Z,32.83
2022-08-18T01:08:59.875Z,33.53
2022-08-18T01:11:26.885Z,41.53
2022-08-18T01:13:54.062Z,43.58
2022-08-18T01:16:40.368Z,39.70
2022-08-18T01:19:44.045Z,37.55
2022-08-18T01:22:29.250Z,33.95
2022-08-18T01:25:17.287Z,32.65
2022-08-18T01:27:44.400Z,33.20
2022-08-18T01:30:15.052Z,52.40
2022-08-18T01:32:45.893Z,62.90
2022-08-18T01:35:15.915Z,46.72
2022-08-18T01:37:43.174Z,50.60
2022-08-18T01:41:25.813Z,46.97
2022-08-18T01:43:03.697Z,54.05
2022-08-18T01:45:33.449Z,54.83
2022-08-18T01:48:00.974Z,60.63
2022-08-18T01:50:30.331Z,156.10
2022-08-18T01:52:57.378Z,145.57
2022-08-18T01:55:28.473Z,135.98
2022-08-18T01:57:56.198Z,146.52
2022-08-18T02:00:25.003Z,98.97
2022-08-18T02:02:57.218Z,93.45
2022-08-18T02:05:43.599Z,76.95
2022-08-18T02:10:40.422Z,57.60
2022-08-18T02:13:07.924Z,40.42
2022-08-18T02:15:35.174Z,31.98
2022-08-18T02:18:02.289Z,34.42
2022-08-18T02:20:29.382Z,39.03
2022-08-18T02:22:58.615Z,35.22
2022-08-18T02:25:25.828Z,33.70
2022-08-18T02:27:53.334Z,36.88
2022-08-18T02:30:20.908Z,49.15
2022-08-18T02:32:48.354Z,39.90
2022-08-18T02:35:15.706Z,38.60
2022-08-18T02:37:47.906Z,39.88
2022-08-18T02:40:17.014Z,79.15
2022-08-18T02:42:45.780Z,49.65
2022-08-18T02:45:13.352Z,40.53
2022-08-18T02:47:43.024Z,43.65
2022-08-18T02:50:13.490Z,39.30
2022-08-18T02:52:41.445Z,40.78
2022-08-18T02:55:09.757Z,44.42
2022-08-18T02:57:36.737Z,41.92
2022-08-18T03:00:04.606Z,41.47
2022-08-18T03:02:32.311Z,44.83
2022-08-18T03:04:59.286Z,45.65
2022-08-18T03:07:26.202Z,42.20
2022-08-18T03:09:53.314Z,44.13
2022-08-18T03:12:20.338Z,42.92
2022-08-18T03:14:47.262Z,39.13
2022-08-18T03:17:15.052Z,38.35
2022-08-18T03:19:47.141Z,39.78
2022-08-18T03:22:28.249Z,43.47
2022-08-18T03:24:56.958Z,40.90
2022-08-18T03:27:24.495Z,43.90
2022-08-18T03:29:51.545Z,41.17
2022-08-18T03:32:18.868Z,44.83
2022-08-18T03:34:46.130Z,44.83
2022-08-18T03:37:15.921Z,48.72
2022-08-18T03:39:43.012Z,43.13
2022-08-18T03:42:10.230Z,46.35
2022-08-18T03:44:37.438Z,40.70
2022-08-18T03:47:08.583Z,37.92
2022-08-18T03:49:35.805Z,44.83
2022-08-18T03:52:03.538Z,61.90
2022-08-18T03:54:32.319Z,60.05
2022-08-18T03:57:00.476Z,44.08
2022-08-18T03:59:30.696Z,46.05
2022-08-18T04:01:57.862Z,47.85
2022-08-18T04:04:27.680Z,50.90
2022-08-18T04:07:04.449Z,45.97
2022-08-18T04:09:33.979Z,44.08
2022-08-18T04:12:16.712Z,45.22
2022-08-18T04:14:48.453Z,41.13
2022-08-18T04:17:24.453Z,43.03
2022-08-18T04:19:53.245Z,43.90
2022-08-18T04:22:20.457Z,40.08
2022-08-18T04:24:49.701Z,42.35
2022-08-18T04:27:17.808Z,46.33
2022-08-18T04:29:44.740Z,47.63
2022-08-18T04:32:11.916Z,41.97
2022-08-18T04:34:39.132Z,45.78
2022-08-18T04:37:08.888Z,51.42
2022-08-18T04:39:35.848Z,49.97
2022-08-18T04:42:04.628Z,46.22
2022-08-18T04:44:31.893Z,50.13
2022-08-18T04:47:01.257Z,47.15
2022-08-18T04:49:28.487Z,49.83
2022-08-18T04:52:36.138Z,46.45
2022-08-18T04:55:02.303Z,48.22
2022-08-18T04:57:33.633Z,51.00
2022-08-18T05:00:03.048Z,51.25
2022-08-18T05:02:31.544Z,49.13
2022-08-18T05:04:58.558Z,49.50
2022-08-18T05:07:25.668Z,49.17
2022-08-18T05:09:55.637Z,46.42
2022-08-18T05:12:26.172Z,42.63
2022-08-18T05:14:54.466Z,42.30
2022-08-18T05:17:21.887Z,44.03
2022-08-18T05:19:51.724Z,40.60
2022-08-18T05:22:27.890Z,41.70
2022-08-18T05:24:56.022Z,38.15
2022-08-18T05:27:22.918Z,33.55
2022-08-18T05:29:51.665Z,33.72
2022-08-18T05:32:30.270Z,36.20
2022-08-18T05:34:59.744Z,33.08
2022-08-18T05:37:38.837Z,32.42
2022-08-18T05:40:11.291Z,37.90
2022-08-18T05:42:40.601Z,32.72
2022-08-18T05:45:15.572Z,31.80
2022-08-18T05:47:42.819Z,32.03
2022-08-18T05:50:13.489Z,29.95
2022-08-18T05:52:49.287Z,37.30
2022-08-18T05:55:47.742Z,30.27
2022-08-18T05:58:23.753Z,28.55
2022-08-18T06:01:05.082Z,32.40
2022-08-18T06:03:45.075Z,29.20
2022-08-18T06:06:19.503Z,31.38
2022-08-18T06:09:05.788Z,33.55
2022-08-18T06:11:33.141Z,31.58
2022-08-18T06:14:01.415Z,26.05
2022-08-18T06:16:37.376Z,24.60
2022-08-18T06:19:21.034Z,24.58
2022-08-18T06:21:56.197Z,29.05
2022-08-18T06:24:31.428Z,22.80
2022-08-18T06:27:03.637Z,26.73
2022-08-18T06:30:04.451Z,26.95
2022-08-18T06:33:09.327Z,24.63
2022-08-18T06:35:46.366Z,26.33
2022-08-18T06:38:36.874Z,27.23
2022-08-18T06:41:42.354Z,23.92
2022-08-18T06:44:32.455Z,25.73
2022-08-18T06:47:15.515Z,23.15
2022-08-18T06:49:42.727Z,24.23
2022-08-18T06:52:20.510Z,25.55
2022-08-18T06:54:51.298Z,25.27
2022-08-18T06:57:31.973Z,23.17
2022-08-18T07:00:03.936Z,27.50
2022-08-18T07:02:42.757Z,21.48
2022-08-18T07:05:19.685Z,25.23
2022-08-18T07:08:06.784Z,22.55
2022-08-18T07:10:50.125Z,21.33
2022-08-18T07:13:20.026Z,20.90
2022-08-18T07:15:48.552Z,25.95
2022-08-18T07:18:28.780Z,25.77
2022-08-18T07:21:00.803Z,23.52
2022-08-18T07:23:31.403Z,28.38
2022-08-18T07:26:05.349Z,21.45
2022-08-18T07:28:45.077Z,23.75
2022-08-18T07:31:24.944Z,25.33
2022-08-18T07:34:08.620Z,23.15
2022-08-18T07:36:47.653Z,23.10
2022-08-18T07:39:20.340Z,23.73
2022-08-18T07:42:06.421Z,21.05
2022-08-18T07:44:52.704Z,26.20
2022-08-18T07:47:41.268Z,19.42
2022-08-18T07:50:31.361Z,21.33
2022-08-18T07:53:34.918Z,20.70
2022-08-18T07:56:27.367Z,19.80
2022-08-18T07:59:20.343Z,23.38
2022-08-18T08:04:41.139Z,22.80
2022-08-18T08:07:25.222Z,23.17
2022-08-18T08:10:03.443Z,24.38
2022-08-18T08:27:00.347Z,18.73
2022-08-18T08:29:51.412Z,23.75
2022-08-18T08:32:35.889Z,17.17
2022-08-18T08:35:50.514Z,20.08
2022-08-18T08:38:39.975Z,16.13
2022-08-18T08:41:21.402Z,13.50
2022-08-18T08:43:57.429Z,14.70
2022-08-18T08:46:32.038Z,14.68
2022-08-18T08:49:19.822Z,15.93
2022-08-18T08:51:56.863Z,11.05
2022-08-18T08:54:31.304Z,17.08
2022-08-18T08:57:01.304Z,14.07
2022-08-18T08:59:28.553Z,10.35
2022-08-18T09:02:47.211Z,12.90
2022-08-18T09:05:23.923Z,11.43
2022-08-18T09:08:19.757Z,9.73
2022-08-18T09:11:06.547Z,17.67
2022-08-18T09:13:36.412Z,11.45
2022-08-18T09:16:14.150Z,15.00
2022-08-18T09:19:19.147Z,11.65
2022-08-18T09:22:09.123Z,9.93
2022-08-18T09:24:47.665Z,13.60
2022-08-18T09:28:09.903Z,15.20
2022-08-18T09:30:42.132Z,15.05
2022-08-18T09:33:41.987Z,17.00
2022-08-18T09:36:30.687Z,14.40
2022-08-18T09:39:53.191Z,11.43
2022-08-18T09:42:49.680Z,10.68
2022-08-18T09:45:33.853Z,13.80
2022-08-18T09:48:25.346Z,10.57
2022-08-18T09:51:20.878Z,14.60
2022-08-18T09:53:52.307Z,14.80
2022-08-18T09:59:37.269Z,14.93
2022-08-18T10:05:19.092Z,13.10
2022-08-18T10:08:01.581Z,12.57
2022-08-18T10:17:13.341Z,18.08
2022-08-18T10:19:52.774Z,58.58
2022-08-18T10:22:46.365Z,13.27
2022-08-18T10:25:29.879Z,10.95
2022-08-18T10:27:57.194Z,14.20
2022-08-18T10:30:34.451Z,11.07
2022-08-18T10:33:17.214Z,15.98
2022-08-18T10:35:59.898Z,14.90
2022-08-18T10:38:45.909Z,54.72
2022-08-18T10:41:31.534Z,12.77
2022-08-18T10:44:01.348Z,15.63
2022-08-18T10:46:42.723Z,12.15
2022-08-18T10:49:13.931Z,16.75
2022-08-18T10:52:07.969Z,15.27
2022-08-18T10:54:54.894Z,14.73
2022-08-18T10:57:29.134Z,14.73
2022-08-18T11:00:08.410Z,12.05
2022-08-18T11:02:45.576Z,11.10
2022-08-18T11:05:21.192Z,15.07
2022-08-18T11:10:57.762Z,10.98
2022-08-18T11:13:49.889Z,12.95
2022-08-18T11:16:17.153Z,15.15
2022-08-18T11:18:57.142Z,12.93
2022-08-18T11:21:41.976Z,10.38
2022-08-18T11:24:25.119Z,14.88
2022-08-18T11:29:32.358Z,10.63
2022-08-18T11:32:36.875Z,10.13
2022-08-18T11:35:29.509Z,12.20
2022-08-18T11:38:03.337Z,8.73
2022-08-18T11:46:38.971Z,9.57
2022-08-18T11:49:58.299Z,17.35
2022-08-18T11:52:29.502Z,10.32
2022-08-18T11:55:16.713Z,11.80
2022-08-18T11:57:58.850Z,11.32
2022-08-18T12:00:53.573Z,14.45
2022-08-18T12:03:28.908Z,11.48
2022-08-18T12:06:19.195Z,10.95
2022-08-18T12:08:59.910Z,11.90
2022-08-18T12:11:33.997Z,13.73
2022-08-18T12:14:31.703Z,14.45
2022-08-18T12:16:57.783Z,12.25
2022-08-18T12:19:34.672Z,13.98
2022-08-18T12:22:13.443Z,10.93
2022-08-18T12:24:41.436Z,13.20
2022-08-18T12:27:20.402Z,14.00
2022-08-18T12:29:50.508Z,11.43
2022-08-18T12:32:46.531Z,12.02
2022-08-18T12:35:09.107Z,8.48
2022-08-18T12:38:00.396Z,9.18
2022-08-18T12:40:38.327Z,14.60
2022-08-18T12:43:06.522Z,13.90
2022-08-18T12:45:34.529Z,9.93
2022-08-18T12:48:04.840Z,14.98
2022-08-18T12:50:50.214Z,10.15
2022-08-18T12:53:29.093Z,13.85
2022-08-18T12:55:58.156Z,14.05
2022-08-18T12:58:25.175Z,10.10
2022-08-18T13:00:52.161Z,10.70
2022-08-18T13:03:20.106Z,11.95
2022-08-18T13:05:47.844Z,12.18
2022-08-18T13:08:30.367Z,15.77
2022-08-18T13:11:21.415Z,10.40
2022-08-18T13:13:52.730Z,10.85
2022-08-18T13:16:30.592Z,11.85
2022-08-18T13:19:06.196Z,12.63
2022-08-18T13:21:38.934Z,12.10
2022-08-18T13:24:09.404Z,7.40
2022-08-18T13:26:41.938Z,10.25
2022-08-18T13:29:10.156Z,7.97
2022-08-18T13:31:38.859Z,9.48
2022-08-18T13:34:11.880Z,15.15
2022-08-18T13:36:46.243Z,12.55
2022-08-18T13:39:20.956Z,13.48
2022-08-18T13:41:53.119Z,10.13
2022-08-18T13:44:22.542Z,11.00
2022-08-18T13:46:55.535Z,9.32
2022-08-18T13:49:30.300Z,10.30
2022-08-18T13:52:00.883Z,9.68
2022-08-18T13:54:34.069Z,9.02
2022-08-18T13:57:04.269Z,10.77
2022-08-18T13:59:32.919Z,11.63
2022-08-18T14:02:02.366Z,8.70
2022-08-18T14:04:29.538Z,10.35
2022-08-18T14:06:59.040Z,13.57
2022-08-18T14:09:37.212Z,6.93
2022-08-18T14:12:21.491Z,14.10
2022-08-18T14:14:54.252Z,12.02
2022-08-18T14:17:24.463Z,13.48
2022-08-18T14:20:21.160Z,12.75
2022-08-18T14:23:13.001Z,13.25
2022-08-18T14:25:59.706Z,12.15
2022-08-18T14:28:28.340Z,11.73
2022-08-18T14:30:57.045Z,10.45
2022-08-18T14:33:49.555Z,8.00
2022-08-18T14:36:14.226Z,10.43
2022-08-18T14:38:41.596Z,13.38
2022-08-18T14:41:11.680Z,14.48
2022-08-18T14:44:12.525Z,8.90
2022-08-18T14:46:30.129Z,9.90
2022-08-18T14:48:57.816Z,9.07
2022-08-18T14:51:27.087Z,8.05
2022-08-18T14:53:55.270Z,11.05
2022-08-18T14:56:24.417Z,10.55
2022-08-18T14:58:55.849Z,12.15
2022-08-18T15:01:24.622Z,8.30
2022-08-18T15:03:54.486Z,14.27
2022-08-18T15:06:27.065Z,13.38
2022-08-18T15:08:57.114Z,8.23
2022-08-18T15:11:25.282Z,15.45
2022-08-18T15:13:55.112Z,12.80
2022-08-18T15:16:31.576Z,11.48
2022-08-18T15:19:00.364Z,8.18
2022-08-18T15:21:47.818Z,10.48
2022-08-18T15:24:39.643Z,11.25
2022-08-18T15:27:10.220Z,13.38
2022-08-18T15:29:41.612Z,12.40
2022-08-18T15:32:17.562Z,9.90
2022-08-18T15:34:46.909Z,11.55
2022-08-18T15:37:20.369Z,17.02
2022-08-18T15:40:21.562Z,9.88
2022-08-18T15:43:01.444Z,12.25
2022-08-18T15:45:37.793Z,10.80
2022-08-18T15:48:12.614Z,10.65
2022-08-18T15:50:40.405Z,16.27
2022-08-18T15:53:11.981Z,15.05
2022-08-18T15:55:40.475Z,11.43
2022-08-18T15:58:11.071Z,10.18
2022-08-18T16:00:48.031Z,17.15
2022-08-18T16:03:16.671Z,10.05
2022-08-18T16:05:52.626Z,8.55
2022-08-18T16:08:25.424Z,9.20
2022-08-18T16:10:53.949Z,9.43
2022-08-18T16:13:21.829Z,8.82
2022-08-18T16:15:50.015Z,10.00
2022-08-18T16:18:20.890Z,12.25
2022-08-18T16:20:48.570Z,8.45
2022-08-18T16:23:19.849Z,10.03
2022-08-18T16:25:46.795Z,13.90
2022-08-18T16:28:13.935Z,8.60
2022-08-18T16:30:41.376Z,9.02
2022-08-18T16:33:08.576Z,10.90
2022-08-18T16:35:37.434Z,8.40
2022-08-18T16:38:09.175Z,11.00
2022-08-18T16:40:37.546Z,12.10
2022-08-18T16:43:05.965Z,8.80
2022-08-18T16:45:36.140Z,9.85
2022-08-18T16:48:03.709Z,12.10
2022-08-18T16:50:30.694Z,11.95
2022-08-18T16:52:57.917Z,11.77
2022-08-18T16:55:25.255Z,11.25
2022-08-18T16:58:15.288Z,10.43
2022-08-18T17:01:02.342Z,15.52
2022-08-18T17:03:47.976Z,9.77
2022-08-18T17:06:18.250Z,10.75
2022-08-18T17:08:46.258Z,13.45
2022-08-18T17:11:17.550Z,11.07
2022-08-18T17:13:46.640Z,12.23
2022-08-18T17:16:14.336Z,11.50
2022-08-18T17:18:42.036Z,10.98
2022-08-18T17:21:12.494Z,17.27
2022-08-18T17:23:40.901Z,11.65
2022-08-18T17:26:17.607Z,14.55
2022-08-18T17:28:52.620Z,14.95
2022-08-18T17:31:21.059Z,11.50
2022-08-18T17:33:49.017Z,9.70
2022-08-18T17:36:28.235Z,11.32
2022-08-18T17:39:00.097Z,14.68
2022-08-18T17:41:27.925Z,17.25
2022-08-18T17:44:00.836Z,13.00
2022-08-18T17:46:37.083Z,14.57
2022-08-18T17:49:14.490Z,14.27
2022-08-18T17:51:55.331Z,12.20
2022-08-18T17:54:43.542Z,11.68
2022-08-18T17:57:35.937Z,14.65
2022-08-18T18:00:12.753Z,18.80
2022-08-18T18:02:47.916Z,13.60
2022-08-18T18:05:19.653Z,17.77
2022-08-18T18:07:52.904Z,20.67
2022-08-18T18:10:25.760Z,16.75
2022-08-18T18:13:10.189Z,19.55
2022-08-18T18:15:40.877Z,24.70
2022-08-18T18:18:21.855Z,12.07
2022-08-18T18:21:05.723Z,18.10
2022-08-18T18:23:41.346Z,13.95
2022-08-18T18:26:33.692Z,15.35
2022-08-18T18:29:19.475Z,13.15
2022-08-18T18:32:24.219Z,13.02
2022-08-18T18:35:15.666Z,13.80
2022-08-18T18:37:52.587Z,14.23
2022-08-18T18:40:35.815Z,17.20
2022-08-18T18:43:33.274Z,14.07
2022-08-18T18:46:18.944Z,17.08
2022-08-18T18:48:52.219Z,15.65
2022-08-18T18:51:47.047Z,13.93
2022-08-18T18:54:19.688Z,12.05
2022-08-18T18:56:54.097Z,13.27
2022-08-18T19:00:03.017Z,15.27
2022-08-18T19:02:49.129Z,23.75
2022-08-18T19:05:52.252Z,16.98
2022-08-18T19:11:14.392Z,18.92
2022-08-18T19:13:49.493Z,16.10
2022-08-18T19:16:28.413Z,18.00
2022-08-18T19:19:38.307Z,25.70
2022-08-18T19:22:23.091Z,16.10
2022-08-18T19:25:14.199Z,15.65
2022-08-18T19:27:56.931Z,20.38
2022-08-18T19:30:24.212Z,16.65
2022-08-18T19:33:00.707Z,12.43
2022-08-18T19:35:39.661Z,11.95
2022-08-18T19:38:19.190Z,13.75
2022-08-18T19:40:54.829Z,16.50
2022-08-18T19:43:38.985Z,11.20
2022-08-18T19:46:38.122Z,11.95
2022-08-18T19:49:12.134Z,9.75
2022-08-18T19:51:41.821Z,12.57
2022-08-18T19:54:36.697Z,11.82
2022-08-18T19:57:27.566Z,14.93
2022-08-18T20:00:13.007Z,11.90
2022-08-18T20:03:04.891Z,17.00
2022-08-18T20:05:41.608Z,11.07
2022-08-18T20:08:15.079Z,12.85
2022-08-18T20:10:57.926Z,14.95
2022-08-18T20:13:41.301Z,13.05
2022-08-18T20:16:45.207Z,11.75
2022-08-18T20:19:31.227Z,14.38
2022-08-18T20:22:03.714Z,12.43
2022-08-18T20:27:21.750Z,11.23
2022-08-18T20:30:00.105Z,13.73
2022-08-18T20:32:34.430Z,12.68
2022-08-18T20:35:21.389Z,11.98
2022-08-18T20:37:48.375Z,15.65
2022-08-18T20:40:41.062Z,11.02
2022-08-18T20:43:24.121Z,11.30
2022-08-18T20:45:58.816Z,15.48
2022-08-18T20:48:35.895Z,16.67
2022-08-18T20:51:13.592Z,13.18
2022-08-18T20:54:03.975Z,14.65
2022-08-18T20:56:55.483Z,15.00
2022-08-18T20:59:39.042Z,13.90
2022-08-18T21:02:31.821Z,11.35
2022-08-18T21:05:00.727Z,18.63
2022-08-18T21:07:37.767Z,13.30
2022-08-18T21:10:12.131Z,16.05
2022-08-18T21:12:52.437Z,15.63
2022-08-18T21:15:26.863Z,20.40
2022-08-18T21:18:20.938Z,14.85
2022-08-18T21:20:50.151Z,17.77
2022-08-18T21:23:24.845Z,15.73
2022-08-18T21:25:55.545Z,18.85
2022-08-18T21:28:25.452Z,20.08
2022-08-18T21:31:29.089Z,14.60
2022-08-18T21:34:01.083Z,16.88
2022-08-18T21:36:32.515Z,15.68
2022-08-18T21:39:07.672Z,22.17
2022-08-18T21:41:42.546Z,16.90
2022-08-18T21:44:21.605Z,14.82
2022-08-18T21:46:49.213Z,13.75
2022-08-18T21:49:27.249Z,16.50
2022-08-18T21:51:54.627Z,14.40
2022-08-18T21:54:25.215Z,13.27
2022-08-18T21:57:26.736Z,15.65
2022-08-18T22:00:23.815Z,16.75
2022-08-18T22:03:07.864Z,13.90
2022-08-18T22:05:58.218Z,13.52
2022-08-18T22:08:28.673Z,14.77
2022-08-18T22:11:59.856Z,15.13
2022-08-18T22:14:53.913Z,17.48
2022-08-18T22:17:31.572Z,14.50
2022-08-18T22:20:36.872Z,12.35
2022-08-18T22:23:31.506Z,12.23
2022-08-18T22:26:16.502Z,14.82
2022-08-18T22:29:01.295Z,22.67
2022-08-18T22:31:37.574Z,14.77
2022-08-18T22:34:14.397Z,14.73
2022-08-18T22:36:54.080Z,15.95
2022-08-18T22:39:28.569Z,18.63
2022-08-18T22:41:56.098Z,15.10
2022-08-18T22:44:23.435Z,21.35
2022-08-18T22:46:50.903Z,14.02
2022-08-18T22:49:18.699Z,14.40
2022-08-18T22:51:48.387Z,15.20
2022-08-18T22:54:17.064Z,16.00
2022-08-18T22:56:55.177Z,13.18
2022-08-18T22:59:26.775Z,15.95
2022-08-18T23:01:54.568Z,16.58
2022-08-18T23:04:23.130Z,15.63
2022-08-18T23:06:53.811Z,16.17
2022-08-18T23:09:26.987Z,16.92
2022-08-18T23:11:59.871Z,16.15
2022-08-18T23:14:28.274Z,15.23
2022-08-18T23:16:55.405Z,17.02
2022-08-18T23:19:22.903Z,16.60
2022-08-18T23:21:51.715Z,14.55
2022-08-18T23:24:20.240Z,18.40
2022-08-18T23:26:47.559Z,14.75
2022-08-18T23:29:14.856Z,14.27
2022-08-18T23:31:44.926Z,15.73
2022-08-18T23:34:14.762Z,14.93
2022-08-18T23:36:45.577Z,16.48
2022-08-18T23:39:14.582Z,14.95
2022-08-18T23:41:41.604Z,14.13
2022-08-18T23:44:08.870Z,18.02
2022-08-18T23:46:36.283Z,15.80
2022-08-18T23:49:07.640Z,14.27
2022-08-18T23:51:43.931Z,13.77
2022-08-18T23:54:17.727Z,16.00
2022-08-18T23:56:45.585Z,18.15
2022-08-18T23:59:13.610Z,18.85
